Kronborg, Nebraska
Current Conditions -  °F | °C
As of 1:55 AM on Saturday 25 Oct 2014 (Local Time) from KAUH Reporting Station
Clear Clear  
Wind Chill: 46°   Ceiling: Unl
Heat Index: 48°   Visibility: 10mi
Dew Point: 44°   Wind: 5mph
Humidity: 86%   Direction: 230°SW
Pressure: 30.05"   Gusts: NA
Location:  41.0075°N, 98.0042°W
Report Text: KAUH 250655Z AUTO 23004KT 10SM CLR 09/07 A3005 RMK AO2 T00890067
Loading
Personal Weather Stations






























Interactive Weather Map
Tropical Storm Tracking
New forecast layout! Learn more

10-Day Weather Forecast

Advertisements
Track Severe Weather on mobile